Terminal Aerodrome Forecast
Issued by NWS Sterling, VA

Home | Current Version | Previous Version | Text Only | Print | Product List | Glossary On
Versions: 1 2 3 4 5 6 7 8 9 10 11 12 13 14 15 16 17 18 19 20 21 22 23 24 25 26 27 28 29 30
000
FTUS41 KLWX 231432 AAB
TAFBWI
TAF AMD
KBWI 231432Z 2315/2418 06020G33KT 2SM -DZ BR OVC010 WS020/07045KT
     FM231600 07018G39KT 1SM RA OVC008 WS020/07045KT
     FM232100 06014G22KT 3SM -RA OVC005
     FM240600 36010KT P6SM OVC015
     FM241500 32014G22KT P6SM OVC025=

USA.gov is the U.S. government's official web portal to all federal, state and local government web resources and services.